Time,TemperatureF,DewpointF,PressureIn,WindDirection,WindDirectionDegrees,WindSpeedMPH,WindSpeedGustMPH,Humidity,HourlyPrecipIn,Conditions,Clouds,dailyrainin,SoftwareType,DateUTC
2013-10-07 00:00:00,75.1,73.9,29.79,NW,306,0.0,0.0,96,0.00,,---,0.00,VWS V14.01,2013-10-07 04:00:00,
2013-10-07 00:01:00,75.1,73.9,29.78,NW,304,0.0,0.0,96,0.00,,---,0.00,VWS V14.01,2013-10-07 04:01:00,
2013-10-07 00:02:00,75.1,73.9,29.78,NW,312,0.0,0.0,96,0.00,,---,0.00,VWS V14.01,2013-10-07 04:02:00,
2013-10-07 00:07:00,74.9,73.7,29.78,NW,306,0.0,0.0,96,0.00,,---,0.00,VWS V14.01,2013-10-07 04:07:00,
2013-10-07 00:10:00,75.1,73.9,29.79,NW,305,0.0,0.0,96,0.00,,---,0.00,VWS V14.01,2013-10-07 04:10:00,
2013-10-07 00:12:00,74.9,73.7,29.78,NW,308,0.0,0.0,96,0.00,,---,0.00,VWS V14.01,2013-10-07 04:12:00,
2013-10-07 00:17:00,74.9,73.7,29.78,NW,309,0.0,0.0,96,0.00,,---,0.00,VWS V14.01,2013-10-07 04:17:00,
2013-10-07 00:20:00,75.1,73.9,29.78,NW,305,0.0,0.0,96,0.00,,---,0.00,VWS V14.01,2013-10-07 04:20:00,
2013-10-07 00:22:00,74.7,73.5,29.78,NW,313,0.0,0.0,96,0.00,,---,0.00,VWS V14.01,2013-10-07 04:22:00,
2013-10-07 00:27:00,74.7,73.5,29.78,NW,305,0.0,0.0,96,0.00,,---,0.00,VWS V14.01,2013-10-07 04:27:00,
2013-10-07 00:30:00,75.1,73.9,29.78,NW,306,0.0,0.0,96,0.00,,---,0.00,VWS V14.01,2013-10-07 04:30:00,
2013-10-07 00:32:00,74.6,73.4,29.78,NW,306,0.0,0.0,96,0.00,,---,0.00,VWS V14.01,2013-10-07 04:32:00,
2013-10-07 00:37:00,74.6,73.4,29.78,NW,309,0.0,0.0,96,0.00,,---,0.00,VWS V14.01,2013-10-07 04:37:00,
2013-10-07 00:40:00,75.1,73.9,29.78,NW,305,0.0,0.0,96,0.00,,---,0.00,VWS V14.01,2013-10-07 04:40:00,
2013-10-07 00:42:00,74.6,73.4,29.78,NW,306,0.0,0.0,96,0.00,,---,0.00,VWS V14.01,2013-10-07 04:42:00,
2013-10-07 00:47:00,74.6,73.4,29.78,NW,315,0.0,0.0,96,0.00,,---,0.00,VWS V14.01,2013-10-07 04:47:00,
2013-10-07 00:50:00,75.1,73.9,29.78,NW,305,0.0,0.0,96,0.00,,---,0.00,VWS V14.01,2013-10-07 04:50:00,
2013-10-07 00:52:00,74.6,73.4,29.78,NW,319,0.0,0.0,96,0.00,,---,0.00,VWS V14.01,2013-10-07 04:52:00,
2013-10-07 00:57:00,74.6,73.4,29.78,NW,308,0.0,0.0,96,0.00,,---,0.00,VWS V14.01,2013-10-07 04:57:00,
2013-10-07 01:00:00,75.1,73.9,29.78,NW,306,0.0,0.0,96,0.00,,---,0.00,VWS V14.01,2013-10-07 05:00:00,
2013-10-07 01:02:00,74.4,73.2,29.78,NW,316,0.0,0.0,96,0.00,,---,0.00,VWS V14.01,2013-10-07 05:02:00,
2013-10-07 01:07:00,74.4,73.2,29.78,NW,308,0.0,0.0,96,0.00,,---,0.00,VWS V14.01,2013-10-07 05:07:00,
2013-10-07 01:10:00,74.9,73.7,29.78,NW,315,0.0,0.0,96,0.00,,---,0.00,VWS V14.01,2013-10-07 05:10:00,
2013-10-07 01:12:00,74.4,73.2,29.78,NW,304,0.0,0.0,96,0.00,,---,0.00,VWS V14.01,2013-10-07 05:12:00,
2013-10-07 01:17:00,74.4,73.2,29.78,NW,311,0.0,0.0,96,0.00,,---,0.00,VWS V14.01,2013-10-07 05:17:00,
2013-10-07 01:20:00,74.7,73.5,29.78,NW,305,0.0,0.0,96,0.00,,---,0.00,VWS V14.01,2013-10-07 05:20:00,
2013-10-07 01:22:00,74.4,73.2,29.78,NW,311,0.0,0.0,96,0.00,,---,0.00,VWS V14.01,2013-10-07 05:22:00,
2013-10-07 01:27:00,74.2,73.0,29.78,NW,305,0.0,0.0,96,0.00,,---,0.00,VWS V14.01,2013-10-07 05:27:00,
2013-10-07 01:30:00,74.7,73.5,29.78,NW,305,0.0,0.0,96,0.00,,---,0.00,VWS V14.01,2013-10-07 05:30:00,
2013-10-07 01:32:00,74.2,73.0,29.77,NW,305,0.0,0.0,96,0.00,,---,0.00,VWS V14.01,2013-10-07 05:32:00,
2013-10-07 01:37:00,74.2,73.0,29.77,NW,305,0.0,0.0,96,0.00,,---,0.00,VWS V14.01,2013-10-07 05:37:00,
2013-10-07 01:40:00,74.6,73.4,29.78,NW,306,0.0,0.0,96,0.00,,---,0.00,VWS V14.01,2013-10-07 05:40:00,
2013-10-07 01:42:00,74.2,73.0,29.77,NW,305,0.0,0.0,96,0.00,,---,0.00,VWS V14.01,2013-10-07 05:42:00,
2013-10-07 01:47:00,74.2,73.0,29.77,NW,304,0.0,0.0,96,0.00,,---,0.00,VWS V14.01,2013-10-07 05:47:00,
2013-10-07 01:50:00,74.6,73.4,29.78,NW,308,0.0,0.0,96,0.00,,---,0.00,VWS V14.01,2013-10-07 05:50:00,
2013-10-07 01:52:00,74.0,72.8,29.77,NW,304,0.0,0.0,96,0.00,,---,0.00,VWS V14.01,2013-10-07 05:52:00,
2013-10-07 01:57:00,74.0,72.8,29.77,NNW,328,0.0,0.0,96,0.00,,---,0.00,VWS V14.01,2013-10-07 05:57:00,
2013-10-07 02:00:00,74.4,73.2,29.78,NW,306,0.0,0.0,96,0.00,,---,0.00,VWS V14.01,2013-10-07 06:00:00,
2013-10-07 02:02:00,74.0,72.8,29.77,NW,316,0.0,0.0,96,0.00,,---,0.00,VWS V14.01,2013-10-07 06:02:00,
2013-10-07 02:07:00,74.0,72.8,29.77,NW,313,0.0,0.0,96,0.00,,---,0.00,VWS V14.01,2013-10-07 06:07:00,
2013-10-07 02:10:00,74.4,73.2,29.78,NW,306,0.0,0.0,96,0.00,,---,0.00,VWS V14.01,2013-10-07 06:10:00,
2013-10-07 02:12:00,74.0,72.8,29.77,NW,304,0.0,0.0,96,0.00,,---,0.00,VWS V14.01,2013-10-07 06:12:00,
2013-10-07 02:17:00,74.0,72.8,29.76,NW,306,0.0,0.0,96,0.00,,---,0.00,VWS V14.01,2013-10-07 06:17:00,
2013-10-07 02:20:00,74.4,73.2,29.78,NW,305,0.0,0.0,96,0.00,,---,0.00,VWS V14.01,2013-10-07 06:20:00,
2013-10-07 02:22:00,74.0,72.8,29.76,NW,304,0.0,0.0,96,0.00,,---,0.00,VWS V14.01,2013-10-07 06:22:00,
2013-10-07 02:27:00,74.0,72.8,29.76,NW,305,0.0,0.0,96,0.00,,---,0.00,VWS V14.01,2013-10-07 06:27:00,
2013-10-07 02:30:00,74.2,73.0,29.77,NW,305,0.0,0.0,96,0.00,,---,0.00,VWS V14.01,2013-10-07 06:30:00,
2013-10-07 02:32:00,73.9,72.7,29.75,NW,308,0.0,0.0,96,0.00,,---,0.00,VWS V14.01,2013-10-07 06:32:00,
2013-10-07 02:37:00,73.9,72.7,29.75,NW,305,0.0,0.0,96,0.00,,---,0.00,VWS V14.01,2013-10-07 06:37:00,
2013-10-07 02:40:00,74.2,73.0,29.77,NW,309,0.0,0.0,96,0.00,,---,0.00,VWS V14.01,2013-10-07 06:40:00,
2013-10-07 02:42:00,73.9,72.7,29.75,NW,305,0.0,0.0,96,0.00,,---,0.00,VWS V14.01,2013-10-07 06:42:00,
2013-10-07 02:47:00,74.0,72.8,29.74,NW,305,0.0,0.0,96,0.00,,---,0.00,VWS V14.01,2013-10-07 06:47:00,
2013-10-07 02:50:00,74.2,73.0,29.77,NW,304,0.0,0.0,96,0.00,,---,0.00,VWS V14.01,2013-10-07 06:50:00,
2013-10-07 02:52:00,74.0,72.8,29.74,NW,305,0.0,0.0,96,0.00,,---,0.00,VWS V14.01,2013-10-07 06:52:00,
2013-10-07 02:57:00,74.0,72.8,29.74,NW,305,0.0,0.0,96,0.00,,---,0.00,VWS V14.01,2013-10-07 06:57:00,
2013-10-07 03:00:00,74.0,72.8,29.77,NW,312,0.0,0.0,96,0.00,,---,0.00,VWS V14.01,2013-10-07 07:00:00,
2013-10-07 03:02:00,74.0,72.8,29.75,NW,308,0.0,0.0,96,0.00,,---,0.00,VWS V14.01,2013-10-07 07:02:00,
2013-10-07 03:07:00,74.0,72.8,29.75,NW,305,0.0,0.0,96,0.00,,---,0.00,VWS V14.01,2013-10-07 07:07:00,
2013-10-07 03:10:00,74.0,72.8,29.77,NW,312,0.0,0.0,96,0.00,,---,0.00,VWS V14.01,2013-10-07 07:10:00,
2013-10-07 03:12:00,74.0,72.8,29.75,NW,306,0.0,0.0,96,0.00,,---,0.00,VWS V14.01,2013-10-07 07:12:00,
2013-10-07 03:17:00,74.0,72.8,29.75,NW,305,0.0,0.0,96,0.00,,---,0.00,VWS V14.01,2013-10-07 07:17:00,
2013-10-07 03:20:00,74.0,72.8,29.76,NW,308,0.0,0.0,96,0.00,,---,0.00,VWS V14.01,2013-10-07 07:20:00,
2013-10-07 03:22:00,74.2,73.0,29.75,NW,306,0.0,3.0,96,0.00,,---,0.00,VWS V14.01,2013-10-07 07:22:00,
2013-10-07 03:27:00,74.6,73.4,29.75,WNW,282,0.0,3.0,96,0.02,,---,0.02,VWS V14.01,2013-10-07 07:27:00,
2013-10-07 03:30:00,74.0,72.8,29.75,NW,305,0.0,0.0,96,0.00,,---,0.00,VWS V14.01,2013-10-07 07:30:00,
2013-10-07 03:32:00,74.6,73.4,29.75,South,188,0.0,1.0,96,0.04,,---,0.04,VWS V14.01,2013-10-07 07:32:00,
2013-10-07 03:37:00,74.2,73.0,29.75,South,179,0.0,5.0,96,0.04,,---,0.04,VWS V14.01,2013-10-07 07:37:00,
2013-10-07 03:40:00,73.9,72.7,29.75,NW,305,0.0,0.0,96,0.00,,---,0.00,VWS V14.01,2013-10-07 07:40:00,
2013-10-07 03:42:00,74.0,72.8,29.75,SSE,164,0.0,0.0,96,0.05,,---,0.05,VWS V14.01,2013-10-07 07:42:00,
2013-10-07 03:47:00,73.9,72.7,29.75,SSE,165,0.0,0.0,96,0.05,,---,0.05,VWS V14.01,2013-10-07 07:47:00,
2013-10-07 03:50:00,74.0,72.8,29.74,NW,305,0.0,0.0,96,0.00,,---,0.00,VWS V14.01,2013-10-07 07:50:00,
2013-10-07 03:52:00,73.9,72.7,29.75,South,172,0.0,0.0,96,0.05,,---,0.05,VWS V14.01,2013-10-07 07:52:00,
2013-10-07 03:57:00,73.7,72.5,29.75,South,169,0.0,0.0,96,0.05,,---,0.05,VWS V14.01,2013-10-07 07:57:00,
2013-10-07 04:00:00,74.0,72.8,29.75,NW,305,0.0,0.0,96,0.00,,---,0.00,VWS V14.01,2013-10-07 08:00:00,
2013-10-07 04:02:00,73.7,72.5,29.74,South,176,0.0,0.0,96,0.05,,---,0.05,VWS V14.01,2013-10-07 08:02:00,
2013-10-07 04:07:00,73.5,72.3,29.74,SSE,165,0.0,0.0,96,0.05,,---,0.05,VWS V14.01,2013-10-07 08:07:00,
2013-10-07 04:10:00,74.0,72.8,29.75,NW,305,0.0,0.0,96,0.00,,---,0.00,VWS V14.01,2013-10-07 08:10:00,
2013-10-07 04:12:00,73.5,72.3,29.74,SSE,161,0.0,0.0,96,0.05,,---,0.05,VWS V14.01,2013-10-07 08:12:00,
2013-10-07 04:17:00,73.5,72.3,29.73,South,169,0.0,0.0,96,0.05,,---,0.05,VWS V14.01,2013-10-07 08:17:00,
2013-10-07 04:20:00,74.2,73.0,29.75,NW,305,0.0,0.0,96,0.00,,---,0.00,VWS V14.01,2013-10-07 08:20:00,
2013-10-07 04:22:00,73.5,72.3,29.73,SSE,168,0.0,0.0,96,0.05,,---,0.05,VWS V14.01,2013-10-07 08:22:00,
2013-10-07 04:27:00,73.5,72.3,29.73,South,174,0.0,0.0,96,0.05,,---,0.05,VWS V14.01,2013-10-07 08:27:00,
2013-10-07 04:30:00,74.6,73.4,29.75,South,189,0.0,3.0,96,0.03,,---,0.03,VWS V14.01,2013-10-07 08:30:00,
2013-10-07 04:32:00,73.5,72.3,29.73,South,171,0.0,0.0,96,0.02,,---,0.05,VWS V14.01,2013-10-07 08:32:00,
2013-10-07 04:37:00,73.5,72.3,29.73,South,171,0.0,0.0,96,0.02,,---,0.05,VWS V14.01,2013-10-07 08:37:00,
2013-10-07 04:40:00,74.2,73.0,29.75,SSE,168,0.0,5.0,96,0.05,,---,0.05,VWS V14.01,2013-10-07 08:40:00,
2013-10-07 04:42:00,73.3,72.1,29.73,South,172,0.0,0.0,96,0.00,,---,0.05,VWS V14.01,2013-10-07 08:42:00,
2013-10-07 04:47:00,73.3,72.1,29.72,SSE,165,0.0,0.0,96,0.00,,---,0.05,VWS V14.01,2013-10-07 08:47:00,
2013-10-07 04:50:00,73.9,72.7,29.75,SSE,167,0.0,0.0,96,0.05,,---,0.05,VWS V14.01,2013-10-07 08:50:00,
2013-10-07 04:52:00,73.3,72.1,29.72,South,172,0.0,0.0,96,0.00,,---,0.05,VWS V14.01,2013-10-07 08:52:00,
2013-10-07 04:57:00,73.5,72.3,29.72,SSE,167,0.0,0.0,96,0.00,,---,0.05,VWS V14.01,2013-10-07 08:57:00,
2013-10-07 05:00:00,73.7,72.5,29.74,South,182,0.0,0.0,96,0.05,,---,0.05,VWS V14.01,2013-10-07 09:00:00,
2013-10-07 05:02:00,73.5,72.3,29.73,SSE,168,0.0,0.0,96,0.00,,---,0.05,VWS V14.01,2013-10-07 09:02:00,
2013-10-07 05:07:00,73.5,72.3,29.73,South,175,0.0,0.0,96,0.00,,---,0.05,VWS V14.01,2013-10-07 09:07:00,
2013-10-07 05:10:00,73.5,72.3,29.74,South,175,0.0,0.0,96,0.05,,---,0.05,VWS V14.01,2013-10-07 09:10:00,
2013-10-07 05:12:00,73.5,72.3,29.73,South,172,0.0,0.0,96,0.00,,---,0.05,VWS V14.01,2013-10-07 09:12:00,
2013-10-07 05:17:00,73.7,72.5,29.73,South,169,0.0,0.0,96,0.00,,---,0.05,VWS V14.01,2013-10-07 09:17:00,
2013-10-07 05:20:00,73.5,72.3,29.73,South,178,0.0,0.0,96,0.05,,---,0.05,VWS V14.01,2013-10-07 09:20:00,
2013-10-07 05:22:00,73.7,72.5,29.73,South,171,0.0,0.0,96,0.00,,---,0.05,VWS V14.01,2013-10-07 09:22:00,
2013-10-07 05:27:00,73.7,72.5,29.73,South,171,0.0,0.0,96,0.00,,---,0.05,VWS V14.01,2013-10-07 09:27:00,
2013-10-07 05:30:00,73.5,72.3,29.73,SSE,167,0.0,0.0,96,0.05,,---,0.05,VWS V14.01,2013-10-07 09:30:00,
2013-10-07 05:32:00,73.9,72.7,29.73,SSE,168,0.0,0.0,96,0.00,,---,0.05,VWS V14.01,2013-10-07 09:32:00,
2013-10-07 05:37:00,73.9,72.7,29.73,SSE,164,0.0,0.0,96,0.00,,---,0.05,VWS V14.01,2013-10-07 09:37:00,
2013-10-07 05:40:00,73.5,72.3,29.73,SSE,165,0.0,0.0,96,0.02,,---,0.05,VWS V14.01,2013-10-07 09:40:00,
2013-10-07 05:42:00,73.9,72.7,29.73,South,174,0.0,0.0,96,0.00,,---,0.05,VWS V14.01,2013-10-07 09:42:00,
2013-10-07 05:47:00,73.9,72.7,29.73,SSW,193,0.0,2.0,96,0.00,,---,0.05,VWS V14.01,2013-10-07 09:47:00,
2013-10-07 05:50:00,73.3,72.1,29.72,SSE,168,0.0,0.0,96,0.00,,---,0.05,VWS V14.01,2013-10-07 09:50:00,
2013-10-07 05:52:00,73.9,72.7,29.73,South,172,0.0,0.0,96,0.00,,---,0.05,VWS V14.01,2013-10-07 09:52:00,
2013-10-07 05:57:00,73.9,72.7,29.73,South,186,0.0,0.0,96,0.00,,---,0.05,VWS V14.01,2013-10-07 09:57:00,
2013-10-07 06:00:00,73.5,72.3,29.73,SSE,167,0.0,0.0,96,0.00,,---,0.05,VWS V14.01,2013-10-07 10:00:00,
2013-10-07 06:02:00,73.9,72.7,29.74,South,169,0.0,0.0,96,0.00,,---,0.05,VWS V14.01,2013-10-07 10:02:00,
2013-10-07 06:07:00,73.9,72.7,29.74,South,174,0.0,0.0,96,0.00,,---,0.05,VWS V14.01,2013-10-07 10:07:00,
2013-10-07 06:10:00,73.5,72.3,29.73,South,174,0.0,0.0,96,0.00,,---,0.05,VWS V14.01,2013-10-07 10:10:00,
2013-10-07 06:12:00,73.9,72.7,29.74,South,171,0.0,0.0,96,0.00,,---,0.05,VWS V14.01,2013-10-07 10:12:00,
2013-10-07 06:17:00,73.9,72.7,29.74,South,174,0.0,0.0,96,0.00,,---,0.05,VWS V14.01,2013-10-07 10:17:00,
2013-10-07 06:20:00,73.7,72.5,29.73,South,169,0.0,0.0,96,0.00,,---,0.05,VWS V14.01,2013-10-07 10:20:00,
2013-10-07 06:22:00,74.0,72.8,29.74,South,175,0.0,0.0,96,0.00,,---,0.05,VWS V14.01,2013-10-07 10:22:00,
2013-10-07 06:27:00,74.2,73.0,29.74,South,169,0.0,0.0,96,0.01,,---,0.06,VWS V14.01,2013-10-07 10:27:00,
2013-10-07 06:30:00,73.9,72.7,29.73,SSE,167,0.0,0.0,96,0.00,,---,0.05,VWS V14.01,2013-10-07 10:30:00,
2013-10-07 06:32:00,74.2,73.0,29.74,SSE,168,0.0,0.0,96,0.01,,---,0.06,VWS V14.01,2013-10-07 10:32:00,
2013-10-07 06:37:00,74.2,73.0,29.74,SSE,167,0.0,0.0,96,0.01,,---,0.06,VWS V14.01,2013-10-07 10:37:00,
2013-10-07 06:40:00,73.9,72.7,29.73,SSE,164,0.0,0.0,96,0.00,,---,0.05,VWS V14.01,2013-10-07 10:40:00,
2013-10-07 06:42:00,74.0,72.8,29.74,South,174,0.0,0.0,96,0.01,,---,0.06,VWS V14.01,2013-10-07 10:42:00,
2013-10-07 06:47:00,74.0,72.8,29.73,South,172,0.0,0.0,96,0.01,,---,0.06,VWS V14.01,2013-10-07 10:47:00,
2013-10-07 06:50:00,73.9,72.7,29.73,South,174,0.0,2.0,96,0.00,,---,0.05,VWS V14.01,2013-10-07 10:50:00,
2013-10-07 06:52:00,73.9,72.7,29.73,South,172,0.0,0.0,96,0.01,,---,0.06,VWS V14.01,2013-10-07 10:52:00,
2013-10-07 06:57:00,73.7,72.5,29.73,South,169,0.0,0.0,96,0.01,,---,0.06,VWS V14.01,2013-10-07 10:57:00,
2013-10-07 07:00:00,73.9,72.7,29.74,South,172,0.0,1.0,96,0.00,,---,0.05,VWS V14.01,2013-10-07 11:00:00,
2013-10-07 07:02:00,73.7,72.5,29.73,SSE,168,0.0,0.0,96,0.01,,---,0.06,VWS V14.01,2013-10-07 11:02:00,
2013-10-07 07:07:00,73.7,72.5,29.73,SSE,165,6.0,10.0,96,0.04,,---,0.09,VWS V14.01,2013-10-07 11:07:00,
2013-10-07 07:10:00,73.9,72.7,29.74,South,181,0.0,0.0,96,0.00,,---,0.05,VWS V14.01,2013-10-07 11:10:00,
2013-10-07 07:12:00,73.5,72.3,29.73,South,179,0.0,4.0,96,0.04,,---,0.09,VWS V14.01,2013-10-07 11:12:00,
2013-10-07 07:17:00,73.5,72.3,29.74,West,265,2.0,7.0,96,0.04,,---,0.09,VWS V14.01,2013-10-07 11:17:00,
2013-10-07 07:20:00,73.9,72.7,29.74,South,172,0.0,0.0,96,0.00,,---,0.05,VWS V14.01,2013-10-07 11:20:00,
2013-10-07 07:22:00,73.3,72.1,29.74,South,185,0.0,2.0,96,0.04,,---,0.09,VWS V14.01,2013-10-07 11:22:00,
2013-10-07 07:27:00,73.3,72.1,29.74,SSE,168,0.0,2.0,96,0.04,,---,0.09,VWS V14.01,2013-10-07 11:27:00,
2013-10-07 07:30:00,74.2,73.0,29.74,SSE,168,0.0,0.0,96,0.01,,---,0.06,VWS V14.01,2013-10-07 11:30:00,
2013-10-07 07:32:00,73.3,72.1,29.74,South,178,0.0,2.0,96,0.03,,---,0.09,VWS V14.01,2013-10-07 11:32:00,
2013-10-07 07:37:00,73.3,72.1,29.74,South,178,0.0,2.0,96,0.03,,---,0.09,VWS V14.01,2013-10-07 11:37:00,
2013-10-07 07:40:00,74.0,72.8,29.74,South,171,0.0,1.0,96,0.01,,---,0.06,VWS V14.01,2013-10-07 11:40:00,
2013-10-07 07:42:00,73.2,72.0,29.74,South,178,0.0,0.0,96,0.03,,---,0.09,VWS V14.01,2013-10-07 11:42:00,
2013-10-07 07:47:00,73.2,72.0,29.73,South,178,0.0,0.0,96,0.03,,---,0.09,VWS V14.01,2013-10-07 11:47:00,
2013-10-07 07:50:00,73.9,72.7,29.73,SSE,168,0.0,0.0,96,0.01,,---,0.06,VWS V14.01,2013-10-07 11:50:00,
2013-10-07 07:52:00,73.2,72.0,29.73,South,178,0.0,0.0,96,0.03,,---,0.09,VWS V14.01,2013-10-07 11:52:00,
2013-10-07 07:57:00,73.2,72.0,29.73,South,179,0.0,0.0,96,0.03,,---,0.09,VWS V14.01,2013-10-07 11:57:00,
2013-10-07 08:00:00,73.7,72.5,29.73,SSE,167,0.0,0.0,96,0.01,,---,0.06,VWS V14.01,2013-10-07 12:00:00,
2013-10-07 08:02:00,73.2,72.0,29.73,South,186,0.0,0.0,96,0.03,,---,0.09,VWS V14.01,2013-10-07 12:02:00,
2013-10-07 08:07:00,73.2,72.0,29.73,South,178,0.0,0.0,96,0.03,,---,0.09,VWS V14.01,2013-10-07 12:07:00,
2013-10-07 08:10:00,73.7,72.5,29.73,WSW,237,0.0,10.0,96,0.04,,---,0.09,VWS V14.01,2013-10-07 12:10:00,
2013-10-07 08:12:00,73.3,72.1,29.73,South,181,0.0,0.0,96,0.00,,---,0.09,VWS V14.01,2013-10-07 12:12:00,
2013-10-07 08:17:00,73.3,72.1,29.73,South,186,0.0,0.0,96,0.00,,---,0.09,VWS V14.01,2013-10-07 12:17:00,
2013-10-07 08:20:00,73.5,72.3,29.74,South,189,0.0,7.0,96,0.04,,---,0.09,VWS V14.01,2013-10-07 12:20:00,
2013-10-07 08:22:00,73.3,72.1,29.73,South,182,0.0,0.0,96,0.00,,---,0.09,VWS V14.01,2013-10-07 12:22:00,
2013-10-07 08:27:00,73.5,72.3,29.73,South,191,0.0,0.0,96,0.00,,---,0.09,VWS V14.01,2013-10-07 12:27:00,
2013-10-07 08:30:00,73.3,72.1,29.74,South,171,0.0,2.0,96,0.04,,---,0.09,VWS V14.01,2013-10-07 12:30:00,
2013-10-07 08:32:00,73.5,72.3,29.73,South,181,0.0,0.0,96,0.00,,---,0.09,VWS V14.01,2013-10-07 12:32:00,
2013-10-07 08:37:00,73.5,72.3,29.73,South,179,0.0,0.0,96,0.00,,---,0.09,VWS V14.01,2013-10-07 12:37:00,
2013-10-07 08:40:00,73.2,72.0,29.74,South,176,0.0,2.0,96,0.03,,---,0.09,VWS V14.01,2013-10-07 12:40:00,
2013-10-07 08:42:00,73.5,72.3,29.73,South,178,0.0,0.0,96,0.00,,---,0.09,VWS V14.01,2013-10-07 12:42:00,
2013-10-07 08:47:00,73.5,72.3,29.74,South,178,0.0,1.0,96,0.00,,---,0.09,VWS V14.01,2013-10-07 12:47:00,
2013-10-07 08:50:00,73.2,72.0,29.73,South,179,0.0,0.0,96,0.03,,---,0.09,VWS V14.01,2013-10-07 12:50:00,
2013-10-07 08:52:00,73.7,72.5,29.74,South,178,3.0,3.0,96,0.00,,---,0.09,VWS V14.01,2013-10-07 12:52:00,
2013-10-07 08:57:00,73.7,72.5,29.74,South,182,0.0,3.0,96,0.00,,---,0.09,VWS V14.01,2013-10-07 12:57:00,
2013-10-07 09:00:00,73.2,72.0,29.73,SSW,192,0.0,0.0,96,0.03,,---,0.09,VWS V14.01,2013-10-07 13:00:00,
2013-10-07 09:02:00,73.7,72.5,29.75,South,179,0.0,0.0,96,0.00,,---,0.09,VWS V14.01,2013-10-07 13:02:00,
2013-10-07 09:07:00,73.7,72.5,29.75,South,182,0.0,0.0,96,0.00,,---,0.09,VWS V14.01,2013-10-07 13:07:00,
2013-10-07 09:10:00,73.2,72.0,29.73,South,178,0.0,0.0,96,0.03,,---,0.09,VWS V14.01,2013-10-07 13:10:00,
2013-10-07 09:12:00,73.7,72.5,29.75,South,185,0.0,0.0,96,0.00,,---,0.09,VWS V14.01,2013-10-07 13:12:00,
2013-10-07 09:17:00,73.7,72.5,29.75,South,185,0.0,0.0,96,0.00,,---,0.09,VWS V14.01,2013-10-07 13:17:00,
2013-10-07 09:20:00,73.3,72.1,29.73,South,191,0.0,0.0,96,0.00,,---,0.09,VWS V14.01,2013-10-07 13:20:00,
2013-10-07 09:22:00,73.9,72.7,29.75,South,181,0.0,0.0,96,0.00,,---,0.09,VWS V14.01,2013-10-07 13:22:00,
2013-10-07 09:27:00,73.9,72.7,29.75,South,181,0.0,0.0,96,0.00,,---,0.09,VWS V14.01,2013-10-07 13:27:00,
2013-10-07 09:30:00,73.5,72.3,29.73,South,175,0.0,0.0,96,0.00,,---,0.09,VWS V14.01,2013-10-07 13:30:00,
2013-10-07 09:32:00,73.9,72.7,29.75,South,172,0.0,0.0,96,0.01,,---,0.10,VWS V14.01,2013-10-07 13:32:00,
2013-10-07 09:37:00,73.9,72.7,29.75,South,175,0.0,0.0,96,0.01,,---,0.10,VWS V14.01,2013-10-07 13:37:00,
2013-10-07 09:40:00,73.5,72.3,29.73,South,178,0.0,0.0,96,0.00,,---,0.09,VWS V14.01,2013-10-07 13:40:00,
2013-10-07 09:42:00,74.0,72.8,29.75,SSW,193,0.0,0.0,96,0.04,,---,0.13,VWS V14.01,2013-10-07 13:42:00,
2013-10-07 09:47:00,74.0,72.8,29.75,SSW,196,0.0,5.0,96,0.14,,---,0.23,VWS V14.01,2013-10-07 13:47:00,
2013-10-07 09:50:00,73.5,72.3,29.74,SSE,165,0.0,2.0,96,0.00,,---,0.09,VWS V14.01,2013-10-07 13:50:00,
2013-10-07 09:52:00,74.0,72.8,29.75,WSW,247,0.0,2.0,96,0.16,,---,0.25,VWS V14.01,2013-10-07 13:52:00,
2013-10-07 09:57:00,74.2,73.0,29.75,WNW,285,0.0,3.0,96,0.34,,---,0.43,VWS V14.01,2013-10-07 13:57:00,
2013-10-07 10:00:00,73.7,72.5,29.75,South,181,0.0,3.0,96,0.00,,---,0.09,VWS V14.01,2013-10-07 14:00:00,
2013-10-07 10:02:00,74.2,73.0,29.76,WNW,292,0.0,0.0,96,0.40,,---,0.49,VWS V14.01,2013-10-07 14:02:00,
2013-10-07 10:07:00,74.2,73.0,29.76,WNW,285,0.0,0.0,96,0.43,,---,0.52,VWS V14.01,2013-10-07 14:07:00,
2013-10-07 10:10:00,73.7,72.5,29.75,South,178,0.0,0.0,96,0.00,,---,0.09,VWS V14.01,2013-10-07 14:10:00,
2013-10-07 10:12:00,74.2,73.0,29.76,WNW,284,0.0,0.0,96,0.44,,---,0.53,VWS V14.01,2013-10-07 14:12:00,
2013-10-07 10:17:00,74.4,73.2,29.76,WNW,284,0.0,0.0,96,0.44,,---,0.53,VWS V14.01,2013-10-07 14:17:00,
2013-10-07 10:20:00,73.9,72.7,29.75,South,184,0.0,0.0,96,0.00,,---,0.09,VWS V14.01,2013-10-07 14:20:00,
2013-10-07 10:22:00,74.6,73.4,29.76,South,179,0.0,0.0,96,0.44,,---,0.53,VWS V14.01,2013-10-07 14:22:00,
2013-10-07 10:27:00,74.7,73.5,29.76,South,188,0.0,0.0,96,0.44,,---,0.53,VWS V14.01,2013-10-07 14:27:00,
2013-10-07 10:30:00,73.9,72.7,29.75,South,172,0.0,0.0,96,0.00,,---,0.09,VWS V14.01,2013-10-07 14:30:00,
2013-10-07 10:32:00,74.9,73.7,29.76,SSW,195,0.0,0.0,96,0.44,,---,0.53,VWS V14.01,2013-10-07 14:32:00,
2013-10-07 10:37:00,75.3,74.1,29.76,SSW,193,0.0,0.0,96,0.44,,---,0.53,VWS V14.01,2013-10-07 14:37:00,
2013-10-07 10:40:00,73.9,72.7,29.75,South,178,0.0,0.0,96,0.02,,---,0.11,VWS V14.01,2013-10-07 14:40:00,
2013-10-07 10:42:00,75.4,74.2,29.76,South,191,0.0,0.0,96,0.42,,---,0.53,VWS V14.01,2013-10-07 14:42:00,
2013-10-07 10:47:00,75.8,74.6,29.76,South,191,0.0,0.0,96,0.42,,---,0.53,VWS V14.01,2013-10-07 14:47:00,
2013-10-07 10:50:00,74.0,72.8,29.75,South,184,0.0,5.0,96,0.15,,---,0.24,VWS V14.01,2013-10-07 14:50:00,
2013-10-07 10:52:00,75.8,74.6,29.76,SW,217,0.0,0.0,96,0.29,,---,0.53,VWS V14.01,2013-10-07 14:52:00,
2013-10-07 10:57:00,76.3,75.1,29.76,SSW,209,0.0,0.0,96,0.29,,---,0.53,VWS V14.01,2013-10-07 14:57:00,
2013-10-07 11:00:00,74.2,73.0,29.76,WNW,288,0.0,3.0,96,0.38,,---,0.47,VWS V14.01,2013-10-07 15:00:00,
2013-10-07 11:02:00,76.3,75.1,29.77,West,277,0.0,0.0,96,0.06,,---,0.53,VWS V14.01,2013-10-07 15:02:00,
2013-10-07 11:07:00,76.5,75.3,29.77,WSW,246,0.0,3.0,96,0.06,,---,0.53,VWS V14.01,2013-10-07 15:07:00,
2013-10-07 11:10:00,74.2,73.0,29.76,WNW,287,0.0,0.0,96,0.44,,---,0.53,VWS V14.01,2013-10-07 15:10:00,
2013-10-07 11:12:00,76.5,75.3,29.77,SW,222,3.0,6.0,96,0.00,,---,0.53,VWS V14.01,2013-10-07 15:12:00,
2013-10-07 11:17:00,76.8,75.6,29.77,SW,226,0.0,6.0,96,0.00,,---,0.53,VWS V14.01,2013-10-07 15:17:00,
2013-10-07 11:20:00,74.4,73.2,29.76,WNW,287,0.0,1.0,96,0.44,,---,0.53,VWS V14.01,2013-10-07 15:20:00,
2013-10-07 11:22:00,76.8,75.6,29.77,West,277,2.0,7.0,96,0.00,,---,0.53,VWS V14.01,2013-10-07 15:22:00,
2013-10-07 11:27:00,77.4,76.2,29.77,South,178,0.0,7.0,96,0.00,,---,0.53,VWS V14.01,2013-10-07 15:27:00,
2013-10-07 11:30:00,74.9,73.7,29.76,South,188,0.0,0.0,96,0.44,,---,0.53,VWS V14.01,2013-10-07 15:30:00,
2013-10-07 11:32:00,77.6,76.4,29.76,South,175,2.0,6.0,96,0.00,,---,0.53,VWS V14.01,2013-10-07 15:32:00,
2013-10-07 11:37:00,77.7,76.5,29.76,SSW,195,0.0,6.0,96,0.00,,---,0.53,VWS V14.01,2013-10-07 15:37:00,
2013-10-07 11:40:00,75.3,74.1,29.76,SSW,192,0.0,0.0,96,0.44,,---,0.53,VWS V14.01,2013-10-07 15:40:00,
2013-10-07 11:42:00,78.1,76.9,29.76,WSW,239,0.0,0.0,96,0.00,,---,0.53,VWS V14.01,2013-10-07 15:42:00,
2013-10-07 11:47:00,78.3,77.1,29.76,SSW,198,4.0,6.0,96,0.00,,---,0.53,VWS V14.01,2013-10-07 15:47:00,
2013-10-07 11:50:00,75.8,74.6,29.76,South,191,0.0,0.0,96,0.42,,---,0.53,VWS V14.01,2013-10-07 15:50:00,
2013-10-07 11:52:00,78.6,77.4,29.76,West,281,3.0,6.0,96,0.00,,---,0.53,VWS V14.01,2013-10-07 15:52:00,
2013-10-07 11:57:00,78.8,77.6,29.76,West,271,1.0,6.0,96,0.00,,---,0.53,VWS V14.01,2013-10-07 15:57:00,
2013-10-07 12:00:00,76.3,75.1,29.77,WNW,285,0.0,3.0,96,0.29,,---,0.53,VWS V14.01,2013-10-07 16:00:00,
2013-10-07 12:02:00,79.4,78.2,29.75,West,268,3.0,3.0,96,0.00,,---,0.53,VWS V14.01,2013-10-07 16:02:00,
2013-10-07 12:07:00,79.4,78.2,29.75,West,281,1.0,5.0,96,0.00,,---,0.53,VWS V14.01,2013-10-07 16:07:00,
2013-10-07 12:10:00,76.5,75.3,29.77,South,171,0.0,3.0,96,0.06,,---,0.53,VWS V14.01,2013-10-07 16:10:00,
2013-10-07 12:12:00,79.8,78.6,29.75,WSW,254,0.0,5.0,96,0.00,,---,0.53,VWS V14.01,2013-10-07 16:12:00,
2013-10-07 12:17:00,79.9,78.7,29.74,West,280,3.0,6.0,96,0.00,,---,0.53,VWS V14.01,2013-10-07 16:17:00,
2013-10-07 12:20:00,76.8,75.6,29.77,SSE,167,0.0,6.0,96,0.00,,---,0.53,VWS V14.01,2013-10-07 16:20:00,
2013-10-07 12:22:00,80.1,78.9,29.74,West,280,1.0,3.0,96,0.00,,---,0.53,VWS V14.01,2013-10-07 16:22:00,
2013-10-07 12:27:00,80.5,79.3,29.74,West,275,2.0,5.0,96,0.00,,---,0.53,VWS V14.01,2013-10-07 16:27:00,
2013-10-07 12:30:00,77.6,76.4,29.76,South,171,0.0,7.0,96,0.00,,---,0.53,VWS V14.01,2013-10-07 16:30:00,
2013-10-07 12:32:00,80.7,79.5,29.74,SW,226,0.0,5.0,96,0.00,,---,0.53,VWS V14.01,2013-10-07 16:32:00,
2013-10-07 12:37:00,80.1,78.9,29.74,WNW,289,0.0,8.0,96,0.00,,---,0.53,VWS V14.01,2013-10-07 16:37:00,
2013-10-07 12:40:00,77.9,76.7,29.76,South,178,0.0,6.0,96,0.00,,---,0.53,VWS V14.01,2013-10-07 16:40:00,
2013-10-07 12:42:00,79.8,78.6,29.74,West,275,0.0,0.0,96,0.00,,---,0.53,VWS V14.01,2013-10-07 16:42:00,
2013-10-07 12:47:00,79.6,78.4,29.73,West,277,0.0,5.0,96,0.01,,---,0.54,VWS V14.01,2013-10-07 16:47:00,
2013-10-07 12:50:00,78.6,77.4,29.76,SW,223,1.0,6.0,96,0.00,,---,0.53,VWS V14.01,2013-10-07 16:50:00,
2013-10-07 12:52:00,79.9,78.7,29.73,SW,233,0.0,0.0,96,0.01,,---,0.54,VWS V14.01,2013-10-07 16:52:00,
2013-10-07 12:57:00,80.5,79.3,29.73,SSW,205,0.0,3.0,96,0.01,,---,0.54,VWS V14.01,2013-10-07 16:57:00,
2013-10-07 13:00:00,79.2,78.0,29.75,WSW,248,2.0,6.0,96,0.00,,---,0.53,VWS V14.01,2013-10-07 17:00:00,
2013-10-07 13:02:00,80.9,79.7,29.73,WNW,298,2.0,9.0,96,0.01,,---,0.54,VWS V14.01,2013-10-07 17:02:00,
2013-10-07 13:07:00,80.9,79.7,29.73,West,272,2.0,10.0,96,0.01,,---,0.54,VWS V14.01,2013-10-07 17:07:00,
2013-10-07 13:10:00,79.6,78.4,29.75,SSE,162,5.0,5.0,96,0.00,,---,0.53,VWS V14.01,2013-10-07 17:10:00,
2013-10-07 13:12:00,81.1,79.9,29.73,West,272,5.0,9.0,96,0.01,,---,0.54,VWS V14.01,2013-10-07 17:12:00,
2013-10-07 13:17:00,81.4,80.2,29.72,NNW,346,5.0,11.0,96,0.01,,---,0.54,VWS V14.01,2013-10-07 17:17:00,
2013-10-07 13:20:00,80.1,78.9,29.74,SW,234,0.0,6.0,96,0.00,,---,0.53,VWS V14.01,2013-10-07 17:20:00,
2013-10-07 13:22:00,82.0,80.8,29.72,WNW,296,6.0,8.0,96,0.01,,---,0.54,VWS V14.01,2013-10-07 17:22:00,
2013-10-07 13:27:00,82.2,80.9,29.72,WNW,288,4.0,11.0,96,0.01,,---,0.54,VWS V14.01,2013-10-07 17:27:00,
2013-10-07 13:30:00,80.7,79.5,29.74,WSW,251,0.0,5.0,96,0.00,,---,0.53,VWS V14.01,2013-10-07 17:30:00,
2013-10-07 13:32:00,82.2,80.9,29.71,West,263,6.0,13.0,96,0.01,,---,0.54,VWS V14.01,2013-10-07 17:32:00,
2013-10-07 13:37:00,83.0,81.8,29.71,NW,306,5.0,13.0,96,0.01,,---,0.54,VWS V14.01,2013-10-07 17:37:00,
2013-10-07 13:40:00,79.9,78.7,29.74,West,270,0.0,8.0,96,0.00,,---,0.53,VWS V14.01,2013-10-07 17:40:00,
2013-10-07 13:42:00,84.0,82.7,29.71,West,280,6.0,14.0,96,0.01,,---,0.54,VWS V14.01,2013-10-07 17:42:00,
2013-10-07 13:47:00,84.0,82.7,29.70,West,274,6.0,14.0,96,0.01,,---,0.54,VWS V14.01,2013-10-07 17:47:00,
2013-10-07 13:50:00,79.8,78.6,29.73,WSW,257,0.0,5.0,96,0.01,,---,0.54,VWS V14.01,2013-10-07 17:50:00,
2013-10-07 13:52:00,84.5,83.2,29.70,West,274,3.0,11.0,96,0.00,,---,0.54,VWS V14.01,2013-10-07 17:52:00,
2013-10-07 13:57:00,84.7,83.4,29.70,WNW,301,1.0,16.0,96,0.00,,---,0.54,VWS V14.01,2013-10-07 17:57:00,
2013-10-07 14:00:00,80.7,79.5,29.73,SW,220,8.0,8.0,96,0.01,,---,0.54,VWS V14.01,2013-10-07 18:00:00,
2013-10-07 14:02:00,84.7,83.4,29.70,WNW,291,1.0,12.0,96,0.00,,---,0.54,VWS V14.01,2013-10-07 18:02:00,
2013-10-07 14:07:00,84.9,83.6,29.70,NW,305,3.0,17.0,96,0.00,,---,0.54,VWS V14.01,2013-10-07 18:07:00,
2013-10-07 14:10:00,81.1,79.9,29.73,West,265,5.0,12.0,96,0.01,,---,0.54,VWS V14.01,2013-10-07 18:10:00,
2013-10-07 14:12:00,85.1,83.8,29.70,WNW,289,7.0,13.0,96,0.00,,---,0.54,VWS V14.01,2013-10-07 18:12:00,
2013-10-07 14:17:00,85.3,84.0,29.69,West,265,5.0,14.0,96,0.00,,---,0.54,VWS V14.01,2013-10-07 18:17:00,
2013-10-07 14:20:00,81.6,80.3,29.72,NW,306,5.0,11.0,96,0.01,,---,0.54,VWS V14.01,2013-10-07 18:20:00,
2013-10-07 14:22:00,85.3,84.0,29.69,WNW,295,5.0,14.0,96,0.00,,---,0.54,VWS V14.01,2013-10-07 18:22:00,
2013-10-07 14:27:00,84.9,83.6,29.69,North,353,3.0,14.0,96,0.00,,---,0.54,VWS V14.01,2013-10-07 18:27:00,
2013-10-07 14:30:00,82.2,80.9,29.71,NW,304,8.0,12.0,96,0.01,,---,0.54,VWS V14.01,2013-10-07 18:30:00,
2013-10-07 14:32:00,84.7,83.4,29.69,West,274,1.0,8.0,96,0.00,,---,0.54,VWS V14.01,2013-10-07 18:32:00,
2013-10-07 14:37:00,84.7,83.4,29.69,WNW,292,11.0,11.0,96,0.00,,---,0.54,VWS V14.01,2013-10-07 18:37:00,
2013-10-07 14:40:00,83.6,82.3,29.71,NNW,344,14.0,14.0,96,0.01,,---,0.54,VWS V14.01,2013-10-07 18:40:00,
2013-10-07 14:42:00,85.1,83.8,29.69,SW,230,7.0,14.0,96,0.00,,---,0.54,VWS V14.01,2013-10-07 18:42:00,
2013-10-07 14:47:00,85.5,84.2,29.69,NW,304,7.0,14.0,96,0.00,,---,0.54,VWS V14.01,2013-10-07 18:47:00,
2013-10-07 14:50:00,84.1,82.8,29.70,NNW,332,3.0,14.0,96,0.01,,---,0.54,VWS V14.01,2013-10-07 18:50:00,
2013-10-07 14:52:00,85.5,84.2,29.69,West,261,11.0,12.0,96,0.00,,---,0.54,VWS V14.01,2013-10-07 18:52:00,
2013-10-07 14:57:00,86.1,84.8,29.69,WNW,296,3.0,13.0,96,0.00,,---,0.54,VWS V14.01,2013-10-07 18:57:00,
2013-10-07 15:00:00,84.7,83.4,29.70,WSW,254,10.0,16.0,96,0.00,,---,0.54,VWS V14.01,2013-10-07 19:00:00,
2013-10-07 15:02:00,85.7,84.4,29.69,NNW,330,13.0,13.0,96,0.00,,---,0.54,VWS V14.01,2013-10-07 19:02:00,
2013-10-07 15:07:00,84.9,83.6,29.69,North,354,6.0,14.0,96,0.00,,---,0.54,VWS V14.01,2013-10-07 19:07:00,
2013-10-07 15:10:00,85.1,83.8,29.70,WNW,298,13.0,17.0,96,0.00,,---,0.54,VWS V14.01,2013-10-07 19:10:00,
2013-10-07 15:12:00,84.7,83.4,29.69,WNW,298,2.0,8.0,96,0.00,,---,0.54,VWS V14.01,2013-10-07 19:12:00,
2013-10-07 15:17:00,85.1,83.8,29.69,WNW,301,8.0,15.0,96,0.00,,---,0.54,VWS V14.01,2013-10-07 19:17:00,
2013-10-07 15:20:00,85.5,84.2,29.69,West,261,2.0,14.0,96,0.00,,---,0.54,VWS V14.01,2013-10-07 19:20:00,
2013-10-07 15:22:00,84.7,83.4,29.69,WSW,244,4.0,9.0,96,0.00,,---,0.54,VWS V14.01,2013-10-07 19:22:00,
2013-10-07 15:27:00,84.5,83.2,29.69,NW,325,6.0,14.0,96,0.00,,---,0.54,VWS V14.01,2013-10-07 19:27:00,
2013-10-07 15:30:00,84.7,83.4,29.69,SSW,206,3.0,14.0,96,0.00,,---,0.54,VWS V14.01,2013-10-07 19:30:00,
2013-10-07 15:32:00,84.5,83.2,29.68,NW,326,10.0,12.0,96,0.00,,---,0.54,VWS V14.01,2013-10-07 19:32:00,
2013-10-07 15:37:00,84.7,83.4,29.68,NW,325,3.0,18.0,96,0.00,,---,0.54,VWS V14.01,2013-10-07 19:37:00,
2013-10-07 15:40:00,84.7,83.4,29.69,NW,305,8.0,11.0,96,0.00,,---,0.54,VWS V14.01,2013-10-07 19:40:00,
2013-10-07 15:42:00,85.1,83.8,29.68,NW,320,12.0,13.0,96,0.00,,---,0.54,VWS V14.01,2013-10-07 19:42:00,
2013-10-07 15:47:00,85.3,84.0,29.68,NNW,343,13.0,17.0,96,0.00,,---,0.54,VWS V14.01,2013-10-07 19:47:00,
2013-10-07 15:50:00,85.5,84.2,29.69,NW,311,0.0,14.0,96,0.00,,---,0.54,VWS V14.01,2013-10-07 19:50:00,
2013-10-07 15:52:00,84.9,83.6,29.68,NW,318,8.0,14.0,96,0.00,,---,0.54,VWS V14.01,2013-10-07 19:52:00,
2013-10-07 15:57:00,84.9,83.6,29.68,WNW,298,6.0,17.0,96,0.00,,---,0.54,VWS V14.01,2013-10-07 19:57:00,
2013-10-07 16:00:00,85.9,84.6,29.69,WNW,285,3.0,13.0,96,0.00,,---,0.54,VWS V14.01,2013-10-07 20:00:00,
2013-10-07 16:02:00,84.5,83.2,29.68,NNW,330,7.0,12.0,96,0.00,,---,0.54,VWS V14.01,2013-10-07 20:02:00,
2013-10-07 16:07:00,84.5,83.2,29.68,NW,319,7.0,12.0,96,0.00,,---,0.54,VWS V14.01,2013-10-07 20:07:00,
2013-10-07 16:10:00,84.7,83.4,29.69,NW,319,6.0,14.0,96,0.00,,---,0.54,VWS V14.01,2013-10-07 20:10:00,
2013-10-07 16:12:00,84.3,83.0,29.68,NW,308,4.0,14.0,96,0.00,,---,0.54,VWS V14.01,2013-10-07 20:12:00,
2013-10-07 16:17:00,84.5,83.2,29.67,West,272,3.0,14.0,96,0.00,,---,0.54,VWS V14.01,2013-10-07 20:17:00,
2013-10-07 16:20:00,84.9,83.6,29.69,West,263,7.0,15.0,96,0.00,,---,0.54,VWS V14.01,2013-10-07 20:20:00,
2013-10-07 16:22:00,84.7,83.4,29.67,WNW,292,2.0,15.0,96,0.00,,---,0.54,VWS V14.01,2013-10-07 20:22:00,
2013-10-07 16:27:00,84.5,83.2,29.67,WNW,301,2.0,15.0,96,0.00,,---,0.54,VWS V14.01,2013-10-07 20:27:00,
2013-10-07 16:30:00,84.7,83.4,29.68,WNW,302,1.0,14.0,96,0.00,,---,0.54,VWS V14.01,2013-10-07 20:30:00,
2013-10-07 16:32:00,84.3,83.0,29.67,WNW,298,5.0,11.0,96,0.00,,---,0.54,VWS V14.01,2013-10-07 20:32:00,
2013-10-07 16:37:00,84.3,83.0,29.67,NW,322,7.0,11.0,96,0.00,,---,0.54,VWS V14.01,2013-10-07 20:37:00,
2013-10-07 16:40:00,85.1,83.8,29.68,NNW,335,10.0,18.0,96,0.00,,---,0.54,VWS V14.01,2013-10-07 20:40:00,
2013-10-07 16:42:00,84.0,82.7,29.67,WSW,258,8.0,10.0,96,0.00,,---,0.54,VWS V14.01,2013-10-07 20:42:00,
2013-10-07 16:47:00,83.6,82.3,29.67,NW,308,6.0,12.0,96,0.00,,---,0.54,VWS V14.01,2013-10-07 20:47:00,
2013-10-07 16:50:00,85.1,83.5,29.68,NW,322,11.0,18.0,95,0.00,,---,0.54,VWS V14.01,2013-10-07 20:50:00,
2013-10-07 16:52:00,83.8,82.5,29.67,NW,305,7.0,16.0,96,0.00,,---,0.54,VWS V14.01,2013-10-07 20:52:00,
2013-10-07 16:57:00,84.0,82.7,29.67,West,274,2.0,16.0,96,0.00,,---,0.54,VWS V14.01,2013-10-07 20:57:00,
2013-10-07 17:00:00,84.9,83.6,29.68,North,357,11.0,17.0,96,0.00,,---,0.54,VWS V14.01,2013-10-07 21:00:00,
2013-10-07 17:02:00,83.6,82.3,29.67,WNW,284,8.0,12.0,96,0.00,,---,0.54,VWS V14.01,2013-10-07 21:02:00,
2013-10-07 17:07:00,83.2,81.9,29.67,NW,322,8.0,13.0,96,0.00,,---,0.54,VWS V14.01,2013-10-07 21:07:00,
2013-10-07 17:10:00,84.3,83.0,29.68,West,281,6.0,12.0,96,0.00,,---,0.54,VWS V14.01,2013-10-07 21:10:00,
2013-10-07 17:12:00,82.4,81.2,29.67,North,356,9.0,13.0,96,0.00,,---,0.54,VWS V14.01,2013-10-07 21:12:00,
2013-10-07 17:17:00,82.2,80.9,29.68,NNW,339,6.0,13.0,96,0.00,,---,0.54,VWS V14.01,2013-10-07 21:17:00,
2013-10-07 17:20:00,84.5,83.2,29.67,WNW,295,1.0,16.0,96,0.00,,---,0.54,VWS V14.01,2013-10-07 21:20:00,
2013-10-07 17:22:00,82.2,80.9,29.68,NW,305,7.0,11.0,96,0.00,,---,0.54,VWS V14.01,2013-10-07 21:22:00,
2013-10-07 17:27:00,82.4,81.2,29.68,NNW,333,2.0,13.0,96,0.00,,---,0.54,VWS V14.01,2013-10-07 21:27:00,
2013-10-07 17:30:00,84.3,83.0,29.67,NW,313,5.0,15.0,96,0.00,,---,0.54,VWS V14.01,2013-10-07 21:30:00,
2013-10-07 17:32:00,82.4,81.2,29.68,NW,312,3.0,10.0,96,0.00,,---,0.54,VWS V14.01,2013-10-07 21:32:00,
2013-10-07 17:37:00,82.4,81.2,29.68,North,353,7.0,12.0,96,0.00,,---,0.54,VWS V14.01,2013-10-07 21:37:00,
2013-10-07 17:40:00,84.1,82.8,29.67,West,270,3.0,13.0,96,0.00,,---,0.54,VWS V14.01,2013-10-07 21:40:00,
2013-10-07 17:42:00,82.6,81.3,29.68,North,353,5.0,7.0,96,0.00,,---,0.54,VWS V14.01,2013-10-07 21:42:00,
2013-10-07 17:47:00,82.4,81.2,29.68,NW,326,6.0,14.0,96,0.00,,---,0.54,VWS V14.01,2013-10-07 21:47:00,
2013-10-07 17:50:00,83.4,82.1,29.67,NW,318,3.0,12.0,96,0.00,,---,0.54,VWS V14.01,2013-10-07 21:50:00,
2013-10-07 17:52:00,82.2,80.9,29.68,NW,313,7.0,13.0,96,0.00,,---,0.54,VWS V14.01,2013-10-07 21:52:00,
2013-10-07 17:57:00,82.2,80.9,29.68,NW,322,6.0,13.0,96,0.00,,---,0.54,VWS V14.01,2013-10-07 21:57:00,
2013-10-07 18:00:00,83.8,82.5,29.67,NW,323,7.0,16.0,96,0.00,,---,0.54,VWS V14.01,2013-10-07 22:00:00,
2013-10-07 18:02:00,82.2,80.9,29.69,NW,322,5.0,11.0,96,0.00,,---,0.54,VWS V14.01,2013-10-07 22:02:00,
2013-10-07 18:07:00,82.4,81.2,29.69,NW,325,11.0,20.0,96,0.00,,---,0.54,VWS V14.01,2013-10-07 22:07:00,
2013-10-07 18:10:00,82.8,81.6,29.67,North,349,6.0,13.0,96,0.00,,---,0.54,VWS V14.01,2013-10-07 22:10:00,
2013-10-07 18:12:00,82.6,81.3,29.69,NNW,337,6.0,14.0,96,0.00,,---,0.54,VWS V14.01,2013-10-07 22:12:00,
2013-10-07 18:17:00,82.6,81.3,29.69,NW,323,6.0,14.0,96,0.00,,---,0.54,VWS V14.01,2013-10-07 22:17:00,
2013-10-07 18:20:00,82.2,80.9,29.68,NW,312,5.0,13.0,96,0.00,,---,0.54,VWS V14.01,2013-10-07 22:20:00,
2013-10-07 18:22:00,82.8,81.6,29.69,NNW,332,0.0,6.0,96,0.00,,---,0.54,VWS V14.01,2013-10-07 22:22:00,
2013-10-07 18:27:00,82.8,81.6,29.69,NW,318,4.0,11.0,96,0.00,,---,0.54,VWS V14.01,2013-10-07 22:27:00,
2013-10-07 18:30:00,82.4,81.2,29.68,North,356,8.0,13.0,96,0.00,,---,0.54,VWS V14.01,2013-10-07 22:30:00,
2013-10-07 18:32:00,82.4,81.2,29.69,NNW,340,1.0,7.0,96,0.00,,---,0.54,VWS V14.01,2013-10-07 22:32:00,
2013-10-07 18:37:00,82.2,80.9,29.69,NW,325,1.0,7.0,96,0.00,,---,0.54,VWS V14.01,2013-10-07 22:37:00,
2013-10-07 18:40:00,82.6,81.3,29.68,NNW,343,2.0,12.0,96,0.00,,---,0.54,VWS V14.01,2013-10-07 22:40:00,
2013-10-07 18:42:00,81.8,80.6,29.69,NW,308,7.0,12.0,96,0.00,,---,0.54,VWS V14.01,2013-10-07 22:42:00,
2013-10-07 18:47:00,81.6,80.3,29.69,NNW,333,7.0,12.0,96,0.00,,---,0.54,VWS V14.01,2013-10-07 22:47:00,
2013-10-07 18:50:00,82.2,80.9,29.68,NW,320,6.0,14.0,96,0.00,,---,0.54,VWS V14.01,2013-10-07 22:50:00,
2013-10-07 18:52:00,81.2,80.0,29.69,NW,322,4.0,11.0,96,0.00,,---,0.54,VWS V14.01,2013-10-07 22:52:00,
2013-10-07 18:57:00,81.2,80.0,29.69,NNW,335,3.0,11.0,96,0.00,,---,0.54,VWS V14.01,2013-10-07 22:57:00,
2013-10-07 19:00:00,82.2,80.9,29.69,NW,318,10.0,13.0,96,0.00,,---,0.54,VWS V14.01,2013-10-07 23:00:00,
2013-10-07 19:02:00,81.1,79.9,29.69,NW,319,5.0,6.0,96,0.00,,---,0.54,VWS V14.01,2013-10-07 23:02:00,
2013-10-07 19:07:00,80.9,79.7,29.69,NNW,330,3.0,8.0,96,0.00,,---,0.54,VWS V14.01,2013-10-07 23:07:00,
2013-10-07 19:10:00,82.4,81.2,29.69,NW,323,5.0,20.0,96,0.00,,---,0.54,VWS V14.01,2013-10-07 23:10:00,
2013-10-07 19:12:00,80.7,79.5,29.69,NW,322,0.0,7.0,96,0.00,,---,0.54,VWS V14.01,2013-10-07 23:12:00,
2013-10-07 19:17:00,80.5,79.3,29.69,NW,309,0.0,7.0,96,0.00,,---,0.54,VWS V14.01,2013-10-07 23:17:00,
2013-10-07 19:20:00,82.6,81.3,29.69,NNW,329,1.0,14.0,96,0.00,,---,0.54,VWS V14.01,2013-10-07 23:20:00,
2013-10-07 19:22:00,80.5,79.3,29.69,NW,308,0.0,6.0,96,0.00,,---,0.54,VWS V14.01,2013-10-07 23:22:00,
2013-10-07 19:27:00,80.5,79.3,29.69,WNW,302,1.0,6.0,96,0.00,,---,0.54,VWS V14.01,2013-10-07 23:27:00,
2013-10-07 19:30:00,82.6,81.3,29.69,WNW,302,1.0,11.0,96,0.00,,---,0.54,VWS V14.01,2013-10-07 23:30:00,
2013-10-07 19:32:00,80.3,79.1,29.70,NW,305,2.0,7.0,96,0.00,,---,0.54,VWS V14.01,2013-10-07 23:32:00,
2013-10-07 19:37:00,80.3,79.1,29.70,NW,325,4.0,7.0,96,0.00,,---,0.54,VWS V14.01,2013-10-07 23:37:00,
2013-10-07 19:40:00,82.0,80.8,29.69,NW,325,2.0,10.0,96,0.00,,---,0.54,VWS V14.01,2013-10-07 23:40:00,
2013-10-07 19:42:00,80.3,79.1,29.70,NW,323,0.0,7.0,96,0.00,,---,0.54,VWS V14.01,2013-10-07 23:42:00,
2013-10-07 19:47:00,80.1,78.9,29.70,NW,306,0.0,7.0,96,0.00,,---,0.54,VWS V14.01,2013-10-07 23:47:00,
2013-10-07 19:50:00,81.4,80.2,29.69,NW,306,5.0,12.0,96,0.00,,---,0.54,VWS V14.01,2013-10-07 23:50:00,
2013-10-07 19:52:00,80.1,78.9,29.70,NW,313,0.0,6.0,96,0.00,,---,0.54,VWS V14.01,2013-10-07 23:52:00,
2013-10-07 19:57:00,79.9,78.7,29.70,NW,311,0.0,6.0,96,0.00,,---,0.54,VWS V14.01,2013-10-07 23:57:00,
2013-10-07 20:00:00,81.1,79.9,29.69,NW,319,1.0,11.0,96,0.00,,---,0.54,VWS V14.01,2013-10-08 00:00:00,
2013-10-07 20:02:00,79.9,78.7,29.71,NW,325,0.0,3.0,96,0.00,,---,0.54,VWS V14.01,2013-10-08 00:02:00,
2013-10-07 20:07:00,79.9,78.7,29.71,NW,325,0.0,3.0,96,0.00,,---,0.54,VWS V14.01,2013-10-08 00:07:00,
2013-10-07 20:10:00,80.9,79.7,29.69,NW,313,0.0,8.0,96,0.00,,---,0.54,VWS V14.01,2013-10-08 00:10:00,
2013-10-07 20:11:00,79.9,78.7,29.71,NW,325,0.0,0.0,96,0.00,,---,0.54,VWS V14.01,2013-10-08 00:11:00,
2013-10-07 20:16:00,79.8,78.6,29.72,WNW,298,0.0,1.0,96,0.00,,---,0.54,VWS V14.01,2013-10-08 00:16:00,
2013-10-07 20:20:00,80.5,79.3,29.69,NW,319,1.0,7.0,96,0.00,,---,0.54,VWS V14.01,2013-10-08 00:20:00,
2013-10-07 20:21:00,79.8,78.6,29.72,NW,316,0.0,1.0,96,0.00,,---,0.54,VWS V14.01,2013-10-08 00:21:00,
2013-10-07 20:26:00,79.8,78.6,29.72,NW,318,0.0,2.0,96,0.00,,---,0.54,VWS V14.01,2013-10-08 00:26:00,
2013-10-07 20:30:00,80.3,79.1,29.70,NW,323,0.0,6.0,96,0.00,,---,0.54,VWS V14.01,2013-10-08 00:30:00,
2013-10-07 20:31:00,79.8,78.6,29.73,NW,320,0.0,3.0,96,0.00,,---,0.54,VWS V14.01,2013-10-08 00:31:00,
2013-10-07 20:36:00,79.8,78.6,29.73,NW,322,3.0,5.0,96,0.00,,---,0.54,VWS V14.01,2013-10-08 00:36:00,
2013-10-07 20:40:00,80.3,79.1,29.70,NW,316,3.0,7.0,96,0.00,,---,0.54,VWS V14.01,2013-10-08 00:40:00,
2013-10-07 20:41:00,79.8,78.6,29.73,NW,323,4.0,6.0,96,0.00,,---,0.54,VWS V14.01,2013-10-08 00:41:00,
2013-10-07 20:46:00,79.8,78.6,29.73,NW,306,0.0,6.0,96,0.00,,---,0.54,VWS V14.01,2013-10-08 00:46:00,
2013-10-07 20:50:00,80.1,78.9,29.70,NNW,328,1.0,7.0,96,0.00,,---,0.54,VWS V14.01,2013-10-08 00:50:00,
2013-10-07 20:51:00,79.8,78.6,29.73,WNW,302,0.0,1.0,96,0.00,,---,0.54,VWS V14.01,2013-10-08 00:51:00,
2013-10-07 20:56:00,79.8,78.6,29.73,NNW,329,0.0,3.0,96,0.00,,---,0.54,VWS V14.01,2013-10-08 00:56:00,
2013-10-07 21:00:00,79.9,78.7,29.71,WNW,301,0.0,6.0,96,0.00,,---,0.54,VWS V14.01,2013-10-08 01:00:00,
2013-10-07 21:01:00,79.8,78.6,29.74,NW,325,5.0,5.0,96,0.00,,---,0.54,VWS V14.01,2013-10-08 01:01:00,
2013-10-07 21:06:00,79.8,78.6,29.74,NNW,337,0.0,5.0,96,0.00,,---,0.54,VWS V14.01,2013-10-08 01:06:00,
2013-10-07 21:10:00,79.9,78.7,29.71,NW,325,0.0,3.0,96,0.00,,---,0.54,VWS V14.01,2013-10-08 01:10:00,
2013-10-07 21:11:00,79.8,78.6,29.74,NW,320,0.0,0.0,96,0.00,,---,0.54,VWS V14.01,2013-10-08 01:11:00,
2013-10-07 21:16:00,79.6,78.4,29.74,WNW,298,0.0,0.0,96,0.00,,---,0.54,VWS V14.01,2013-10-08 01:16:00,
2013-10-07 21:20:00,79.8,78.6,29.72,NNW,336,0.0,3.0,96,0.00,,---,0.54,VWS V14.01,2013-10-08 01:20:00,
2013-10-07 21:21:00,79.6,78.4,29.74,WNW,301,0.0,2.0,96,0.00,,---,0.54,VWS V14.01,2013-10-08 01:21:00,
2013-10-07 21:26:00,79.6,78.4,29.74,West,281,0.0,3.0,96,0.00,,---,0.54,VWS V14.01,2013-10-08 01:26:00,
2013-10-07 21:30:00,79.8,78.6,29.73,NNW,339,0.0,4.0,96,0.00,,---,0.54,VWS V14.01,2013-10-08 01:30:00,
2013-10-07 21:31:00,79.6,78.4,29.74,NNW,347,0.0,0.0,96,0.00,,---,0.54,VWS V14.01,2013-10-08 01:31:00,
2013-10-07 21:36:00,79.6,78.4,29.74,NNW,347,0.0,0.0,96,0.00,,---,0.54,VWS V14.01,2013-10-08 01:36:00,
2013-10-07 21:40:00,79.8,78.6,29.73,WNW,302,2.0,5.0,96,0.00,,---,0.54,VWS V14.01,2013-10-08 01:40:00,
2013-10-07 21:41:00,79.6,78.4,29.74,NNW,347,0.0,0.0,96,0.00,,---,0.54,VWS V14.01,2013-10-08 01:41:00,
2013-10-07 21:46:00,79.6,78.4,29.74,NNW,347,0.0,0.0,96,0.00,,---,0.54,VWS V14.01,2013-10-08 01:46:00,
2013-10-07 21:50:00,79.8,78.6,29.73,NW,312,0.0,6.0,96,0.00,,---,0.54,VWS V14.01,2013-10-08 01:50:00,
2013-10-07 21:51:00,79.6,78.4,29.74,NNW,347,0.0,0.0,96,0.00,,---,0.54,VWS V14.01,2013-10-08 01:51:00,
2013-10-07 21:56:00,79.6,78.4,29.74,NNW,347,0.0,0.0,96,0.00,,---,0.54,VWS V14.01,2013-10-08 01:56:00,
2013-10-07 22:00:00,79.8,78.6,29.74,NW,309,0.0,3.0,96,0.00,,---,0.54,VWS V14.01,2013-10-08 02:00:00,
2013-10-07 22:01:00,79.6,78.4,29.74,NNW,347,0.0,0.0,96,0.00,,---,0.54,VWS V14.01,2013-10-08 02:01:00,
2013-10-07 22:06:00,79.6,78.4,29.74,NNW,347,0.0,0.0,96,0.00,,---,0.54,VWS V14.01,2013-10-08 02:06:00,
2013-10-07 22:10:00,79.8,78.6,29.74,NNW,329,0.0,5.0,96,0.00,,---,0.54,VWS V14.01,2013-10-08 02:10:00,
2013-10-07 22:11:00,79.6,78.4,29.74,NNW,347,0.0,0.0,96,0.00,,---,0.54,VWS V14.01,2013-10-08 02:11:00,
2013-10-07 22:16:00,79.6,78.4,29.74,NNW,347,0.0,0.0,96,0.00,,---,0.54,VWS V14.01,2013-10-08 02:16:00,
2013-10-07 22:20:00,79.6,78.4,29.74,NW,308,0.0,1.0,96,0.00,,---,0.54,VWS V14.01,2013-10-08 02:20:00,
2013-10-07 22:21:00,79.6,78.4,29.74,NNW,347,0.0,0.0,96,0.00,,---,0.54,VWS V14.01,2013-10-08 02:21:00,
2013-10-07 22:26:00,79.6,78.4,29.74,NNW,347,0.0,0.0,96,0.00,,---,0.54,VWS V14.01,2013-10-08 02:26:00,
2013-10-07 22:30:00,79.6,78.4,29.74,NNW,347,0.0,3.0,96,0.00,,---,0.54,VWS V14.01,2013-10-08 02:30:00,
2013-10-07 22:31:00,79.6,78.4,29.74,NNW,347,0.0,0.0,96,0.00,,---,0.54,VWS V14.01,2013-10-08 02:31:00,
2013-10-07 22:36:00,79.6,78.4,29.74,NNW,347,0.0,0.0,96,0.00,,---,0.54,VWS V14.01,2013-10-08 02:36:00,
2013-10-07 22:40:00,79.6,78.4,29.74,NNW,347,0.0,0.0,96,0.00,,---,0.54,VWS V14.01,2013-10-08 02:40:00,
2013-10-07 22:41:00,79.6,78.4,29.74,NNW,347,0.0,0.0,96,0.00,,---,0.54,VWS V14.01,2013-10-08 02:41:00,
2013-10-07 22:46:00,79.6,78.4,29.74,NNW,347,0.0,0.0,96,0.00,,---,0.54,VWS V14.01,2013-10-08 02:46:00,
2013-10-07 22:50:00,79.6,78.4,29.74,NNW,347,0.0,0.0,96,0.00,,---,0.54,VWS V14.01,2013-10-08 02:50:00,
2013-10-07 22:51:00,79.6,78.4,29.74,NNW,347,0.0,0.0,96,0.00,,---,0.54,VWS V14.01,2013-10-08 02:51:00,
2013-10-07 22:56:00,79.6,78.4,29.74,NNW,347,0.0,0.0,96,0.00,,---,0.54,VWS V14.01,2013-10-08 02:56:00,
2013-10-07 23:00:00,79.6,78.4,29.74,NNW,347,0.0,0.0,96,0.00,,---,0.54,VWS V14.01,2013-10-08 03:00:00,
2013-10-07 23:01:00,79.6,78.4,29.75,NNW,347,0.0,0.0,96,0.00,,---,0.54,VWS V14.01,2013-10-08 03:01:00,
2013-10-07 23:06:00,79.6,78.4,29.75,NNW,347,0.0,0.0,96,0.00,,---,0.54,VWS V14.01,2013-10-08 03:06:00,
2013-10-07 23:10:00,79.6,78.4,29.74,NNW,347,0.0,0.0,96,0.00,,---,0.54,VWS V14.01,2013-10-08 03:10:00,
2013-10-07 23:11:00,79.6,78.4,29.75,NNW,347,0.0,0.0,96,0.00,,---,0.54,VWS V14.01,2013-10-08 03:11:00,
2013-10-07 23:16:00,79.6,78.4,29.75,NNW,347,0.0,0.0,96,0.00,,---,0.54,VWS V14.01,2013-10-08 03:16:00,
2013-10-07 23:20:00,79.6,78.4,29.74,NNW,347,0.0,0.0,96,0.00,,---,0.54,VWS V14.01,2013-10-08 03:20:00,
2013-10-07 23:21:00,79.4,78.2,29.75,NW,304,4.0,6.0,96,0.00,,---,0.54,VWS V14.01,2013-10-08 03:21:00,
2013-10-07 23:26:00,79.6,78.4,29.75,NW,316,3.0,7.0,96,0.00,,---,0.54,VWS V14.01,2013-10-08 03:26:00,
2013-10-07 23:30:00,79.6,78.4,29.74,NNW,347,0.0,0.0,96,0.00,,---,0.54,VWS V14.01,2013-10-08 03:30:00,
2013-10-07 23:31:00,79.6,78.4,29.75,WNW,295,6.0,6.0,96,0.00,,---,0.54,VWS V14.01,2013-10-08 03:31:00,
2013-10-07 23:36:00,79.8,78.6,29.75,WNW,302,0.0,10.0,96,0.00,,---,0.54,VWS V14.01,2013-10-08 03:36:00,
2013-10-07 23:40:00,79.6,78.4,29.74,NNW,347,0.0,0.0,96,0.00,,---,0.54,VWS V14.01,2013-10-08 03:40:00,
2013-10-07 23:41:00,79.8,78.6,29.75,NW,325,6.0,7.0,96,0.00,,---,0.54,VWS V14.01,2013-10-08 03:41:00,
2013-10-07 23:46:00,79.8,78.6,29.75,NW,308,1.0,8.0,96,0.00,,---,0.54,VWS V14.01,2013-10-08 03:46:00,
2013-10-07 23:50:00,79.6,78.4,29.74,NNW,347,0.0,0.0,96,0.00,,---,0.54,VWS V14.01,2013-10-08 03:50:00,
2013-10-07 23:51:00,79.9,78.7,29.75,NW,308,2.0,8.0,96,0.00,,---,0.54,VWS V14.01,2013-10-08 03:51:00,
2013-10-07 23:56:00,79.8,78.6,29.75,NW,326,0.0,9.0,96,0.00,,---,0.54,VWS V14.01,2013-10-08 03:56:00,